Time;durP1;ratioP1;P1;durP2;ratioP2;P2;SDS_P1;SDS_P2;PMS_P1;PMS_P2;Temp;Humidity;BMP_temperature;BMP_pressure;BME280_temperature;BME280_humidity;BME280_pressure;Samples;Min_cycle;Max_cycle;Signal;HPM_P1;HPM_P2
2024/02/20 00:00:51;;;;;;;24.08;7.70;;;12.50;99.90;;;;;;7380792;19;19998;-77
2024/02/20 00:03:20;;;;;;;18.85;7.70;;;12.50;99.90;;;;;;7381344;19;20010;-77
2024/02/20 00:05:49;;;;;;;21.13;7.60;;;12.50;99.90;;;;;;7381022;19;20297;-78
2024/02/20 00:08:18;;;;;;;24.95;7.35;;;12.50;99.90;;;;;;7382731;19;20003;-79
2024/02/20 00:10:46;;;;;;;17.67;8.05;;;12.50;99.90;;;;;;7379562;19;20054;-77
2024/02/20 00:13:18;;;;;;;28.67;8.82;;;12.50;99.90;;;;;;7401626;19;20014;-81
2024/02/20 00:15:46;;;;;;;;;;;12.50;99.90;;;;;;7380855;19;20007;-78
2024/02/20 00:18:17;;;;;;;24.23;8.32;;;12.50;99.90;;;;;;7382694;19;19935;-77
2024/02/20 00:20:46;;;;;;;24.83;8.77;;;12.40;99.90;;;;;;7381855;19;20047;-77
2024/02/20 00:23:15;;;;;;;20.75;7.32;;;12.40;99.90;;;;;;7391351;19;20044;-78
2024/02/20 00:25:45;;;;;;;26.63;7.55;;;12.40;99.90;;;;;;7391199;19;20027;-77
2024/02/20 00:28:15;;;;;;;24.13;8.20;;;12.40;99.90;;;;;;7411773;19;20012;-78
2024/02/20 00:30:44;;;;;;;23.38;8.00;;;12.40;99.90;;;;;;7390157;19;20005;-77
2024/02/20 00:33:13;;;;;;;23.92;7.25;;;12.40;99.90;;;;;;7395375;19;20039;-78
2024/02/20 00:35:44;;;;;;;18.30;7.53;;;12.40;99.90;;;;;;7395618;19;20002;-77
2024/02/20 00:38:12;;;;;;;;;;;12.40;99.90;;;;;;7385462;19;20007;-78
2024/02/20 00:40:41;;;;;;;30.67;9.25;;;12.40;99.90;;;;;;7381450;19;19910;-77
2024/02/20 00:43:10;;;;;;;27.52;8.15;;;12.30;99.90;;;;;;7402946;19;20349;-77
2024/02/20 00:45:39;;;;;;;24.13;9.25;;;12.30;99.90;;;;;;7381873;19;20078;-77
2024/02/20 00:48:10;;;;;;;25.27;8.07;;;12.30;99.90;;;;;;7384008;19;20308;-77
2024/02/20 00:50:40;;;;;;;17.70;7.68;;;12.30;99.90;;;;;;7382532;19;20381;-77
2024/02/20 00:53:13;;;;;;;20.30;7.97;;;12.30;99.90;;;;;;7380398;19;20110;-77
2024/02/20 00:55:41;;;;;;;23.15;8.35;;;12.30;99.90;;;;;;7399801;19;20062;-77
2024/02/20 00:58:10;;;;;;;22.52;8.13;;;12.30;99.90;;;;;;7380087;19;20430;-77
2024/02/20 01:00:39;;;;;;;28.13;9.32;;;12.30;99.90;;;;;;7377702;19;20006;-78
2024/02/20 01:03:08;;;;;;;29.58;8.10;;;12.30;99.90;;;;;;7378509;19;20747;-77
2024/02/20 01:05:36;;;;;;;20.65;7.93;;;12.30;99.90;;;;;;7378624;19;20010;-77
2024/02/20 01:08:06;;;;;;;23.70;8.18;;;12.30;99.90;;;;;;7378776;19;20068;-77
2024/02/20 01:10:37;;;;;;;25.17;8.18;;;12.30;99.90;;;;;;7400079;19;20011;-77
2024/02/20 01:13:09;;;;;;;22.20;8.27;;;12.30;99.90;;;;;;7378816;19;20305;-78
2024/02/20 01:15:37;;;;;;;23.55;7.75;;;12.30;99.90;;;;;;7378900;19;20007;-77
2024/02/20 01:18:07;;;;;;;27.90;8.10;;;12.30;99.90;;;;;;7385723;19;20006;-77
2024/02/20 01:20:36;;;;;;;22.92;9.20;;;12.20;99.90;;;;;;7383532;19;20031;-77
2024/02/20 01:23:04;;;;;;;23.85;7.90;;;12.20;99.90;;;;;;7384711;19;20015;-78
2024/02/20 01:25:33;;;;;;;28.05;8.38;;;12.20;99.90;;;;;;7409090;19;20019;-77
2024/02/20 01:28:05;;;;;;;23.52;7.25;;;12.20;99.90;;;;;;7388162;19;20384;-77
2024/02/20 01:30:33;;;;;;;;;;;12.20;99.90;;;;;;7388568;19;20018;-77
2024/02/20 01:33:02;;;;;;;21.83;7.18;;;12.20;99.90;;;;;;7387088;19;20214;-77
2024/02/20 01:35:31;;;;;;;24.17;7.18;;;12.20;99.90;;;;;;7384913;19;20227;-77
2024/02/20 01:38:00;;;;;;;23.92;7.68;;;12.20;99.90;;;;;;7384747;19;20011;-78
2024/02/20 01:40:29;;;;;;;23.63;7.10;;;12.20;99.90;;;;;;7409230;19;20011;-78
2024/02/20 01:42:58;;;;;;;26.40;7.25;;;12.30;99.90;;;;;;7390482;19;20014;-78
2024/02/20 01:45:32;;;;;;;25.38;9.00;;;12.20;99.90;;;;;;7387009;19;20002;-79
2024/02/20 01:48:04;;;;;;;37.35;7.85;;;12.20;99.90;;;;;;7385879;19;20011;-78
2024/02/20 01:50:35;;;;;;;24.02;7.90;;;12.20;99.90;;;;;;7384976;19;20378;-78
2024/02/20 01:53:05;;;;;;;32.67;9.27;;;12.30;99.90;;;;;;7382271;19;20010;-79
2024/02/20 01:55:36;;;;;;;41.75;9.60;;;12.30;99.90;;;;;;7406296;19;20382;-78
2024/02/20 01:58:05;;;;;;;40.38;9.57;;;12.30;99.90;;;;;;7386531;19;20007;-78
2024/02/20 02:00:37;;;;;;;33.70;10.45;;;12.30;99.90;;;;;;7384808;19;20010;-78
2024/02/20 02:03:08;;;;;;;46.95;12.18;;;12.30;99.90;;;;;;7385552;19;20007;-78
2024/02/20 02:05:37;;;;;;;29.23;8.90;;;12.30;99.90;;;;;;7385018;19;20036;-77
2024/02/20 02:08:14;;;;;;;53.47;11.65;;;12.30;99.90;;;;;;7385145;19;20023;-78
2024/02/20 02:10:43;;;;;;;40.40;11.55;;;12.30;99.90;;;;;;7403661;19;20011;-77
2024/02/20 02:13:12;;;;;;;54.63;12.63;;;12.40;99.90;;;;;;7385942;19;20689;-77
2024/02/20 02:15:43;;;;;;;45.70;12.65;;;12.40;99.90;;;;;;7383653;19;20378;-77
2024/02/20 02:18:11;;;;;;;52.97;12.38;;;12.30;99.90;;;;;;7384052;19;20023;-77
2024/02/20 02:20:40;;;;;;;51.67;11.95;;;12.40;99.90;;;;;;7384856;19;20003;-78
2024/02/20 02:23:11;;;;;;;48.10;11.35;;;12.40;99.90;;;;;;7387296;19;20014;-77
2024/02/20 02:25:40;;;;;;;62.72;13.57;;;12.50;99.90;;;;;;7409418;19;20242;-78
2024/02/20 02:28:11;;;;;;;55.00;12.35;;;12.50;99.90;;;;;;7385296;19;20070;-77
2024/02/20 02:30:39;;;;;;;57.45;14.02;;;12.40;99.90;;;;;;7381797;19;20256;-77
2024/02/20 02:33:08;;;;;;;43.53;11.32;;;12.40;99.90;;;;;;7381667;19;20023;-77
2024/02/20 02:35:37;;;;;;;33.15;10.45;;;12.50;99.90;;;;;;7385546;19;20019;-77
2024/02/20 02:38:06;;;;;;;37.00;11.63;;;12.40;99.90;;;;;;7386590;19;20098;-78
2024/02/20 02:40:35;;;;;;;35.75;10.32;;;12.40;99.90;;;;;;7406005;19;20011;-78
2024/02/20 02:43:03;;;;;;;37.22;11.50;;;12.40;99.90;;;;;;7384931;19;20393;-78
2024/02/20 02:45:35;;;;;;;28.60;10.10;;;12.40;99.90;;;;;;7386520;19;20024;-78
2024/02/20 02:48:04;;;;;;;46.92;12.40;;;12.40;99.90;;;;;;7384742;19;20007;-78
2024/02/20 02:50:33;;;;;;;50.53;11.70;;;12.40;99.90;;;;;;7383933;19;20300;-78
2024/02/20 02:53:02;;;;;;;40.88;11.20;;;12.40;99.90;;;;;;7384230;19;20010;-78
2024/02/20 02:55:31;;;;;;;51.97;12.88;;;12.40;99.90;;;;;;7404792;19;20015;-77
2024/02/20 02:58:00;;;;;;;47.00;11.77;;;12.40;99.90;;;;;;7384342;19;20006;-78
2024/02/20 03:00:28;;;;;;;47.55;13.00;;;12.40;99.90;;;;;;7383630;19;20047;-78
2024/02/20 03:03:00;;;;;;;49.05;12.27;;;12.30;99.90;;;;;;7382277;19;20003;-78
2024/02/20 03:05:31;;;;;;;45.42;12.27;;;12.10;99.90;;;;;;7394719;19;20006;-77
2024/02/20 03:08:00;;;;;;;51.10;11.95;;;12.20;99.90;;;;;;7395537;19;20010;-77
2024/02/20 03:10:29;;;;;;;39.47;11.48;;;12.20;99.90;;;;;;7416446;19;20015;-77
2024/02/20 03:12:58;;;;;;;52.90;13.25;;;12.20;99.90;;;;;;7394588;19;20082;-77
2024/02/20 03:15:32;;;;;;;53.53;13.35;;;12.10;99.90;;;;;;7402230;19;20019;-76
2024/02/20 03:18:03;;;;;;;60.78;12.98;;;12.20;99.90;;;;;;7390080;19;20515;-77
2024/02/20 03:20:32;;;;;;;47.72;13.73;;;12.20;99.90;;;;;;7386852;19;20711;-78
2024/02/20 03:23:00;;;;;;;47.47;12.43;;;12.20;99.90;;;;;;7405342;19;20011;-78
2024/02/20 03:25:29;;;;;;;45.00;11.80;;;12.40;99.90;;;;;;7407155;19;20018;-78
2024/02/20 03:27:58;;;;;;;44.63;12.88;;;12.40;99.90;;;;;;7382844;19;20394;-78
2024/02/20 03:30:28;;;;;;;51.70;13.32;;;12.50;99.90;;;;;;7385563;19;20009;-78
2024/02/20 03:32:59;;;;;;;37.95;13.20;;;12.50;99.90;;;;;;7383663;19;20002;-78
2024/02/20 03:35:30;;;;;;;46.45;11.88;;;12.50;99.90;;;;;;7381786;19;20114;-77
2024/02/20 03:37:59;;;;;;;62.22;14.52;;;12.60;99.90;;;;;;7403507;19;20292;-77
2024/02/20 03:40:28;;;;;;;56.72;13.80;;;12.60;99.90;;;;;;7379168;19;20010;-77
2024/02/20 03:42:57;;;;;;;52.50;14.65;;;12.60;99.90;;;;;;7379133;19;20041;-77
2024/02/20 03:45:26;;;;;;;54.63;13.82;;;12.40;99.90;;;;;;7381479;19;20010;-78
2024/02/20 03:47:55;;;;;;;51.25;14.00;;;12.50;99.90;;;;;;7380036;19;19999;-76
2024/02/20 03:50:24;;;;;;;49.47;15.13;;;12.40;99.90;;;;;;7381983;19;20130;-77
2024/02/20 03:52:55;;;;;;;63.40;15.20;;;12.40;99.90;;;;;;7399756;19;20062;-77
2024/02/20 03:55:24;;;;;;;62.95;15.85;;;12.40;99.90;;;;;;7380043;19;20381;-78
2024/02/20 03:57:52;;;;;;;47.72;15.05;;;12.30;99.90;;;;;;7379824;19;20010;-78
2024/02/20 04:00:24;;;;;;;52.97;14.15;;;12.30;99.90;;;;;;7379355;19;20022;-78
2024/02/20 04:02:55;;;;;;;60.45;15.73;;;12.30;99.90;;;;;;7379726;19;20271;-78
2024/02/20 04:05:23;;;;;;;;;;;12.30;99.90;;;;;;7382484;19;20020;-78
2024/02/20 04:07:55;;;;;;;54.42;14.85;;;12.40;99.90;;;;;;7407339;19;20218;-78
2024/02/20 04:10:23;;;;;;;56.58;15.95;;;12.40;99.90;;;;;;7384907;19;20011;-78
2024/02/20 04:12:52;;;;;;;57.53;14.90;;;12.40;99.90;;;;;;7382368;19;20006;-78
2024/02/20 04:15:21;;;;;;;58.20;16.35;;;12.40;99.90;;;;;;7381152;19;20454;-78
2024/02/20 04:17:49;;;;;;;61.33;16.30;;;12.40;99.90;;;;;;7380905;19;20007;-77
2024/02/20 04:20:19;;;;;;;76.03;16.50;;;12.40;99.90;;;;;;7382605;19;20010;-77
2024/02/20 04:22:48;;;;;;;54.83;16.98;;;12.50;99.90;;;;;;7406409;19;20014;-78
2024/02/20 04:25:19;;;;;;;58.08;16.50;;;12.50;99.90;;;;;;7384487;19;20043;-77
2024/02/20 04:27:50;;;;;;;55.80;15.95;;;12.50;99.90;;;;;;7382454;19;20003;-77
2024/02/20 04:30:20;;;;;;;45.45;14.73;;;12.60;99.90;;;;;;7380115;19;20023;-78
2024/02/20 04:32:49;;;;;;;47.95;15.82;;;12.60;99.90;;;;;;7377984;19;20011;-76
2024/02/20 04:35:17;;;;;;;60.50;16.02;;;12.60;99.90;;;;;;7379294;19;20013;-77
2024/02/20 04:37:52;;;;;;;56.97;15.48;;;12.60;99.90;;;;;;7402354;19;20043;-77
2024/02/20 04:40:24;;;;;;;57.83;15.55;;;12.60;99.90;;;;;;7379175;19;20031;-77
2024/02/20 04:42:53;;;;;;;58.58;16.90;;;12.60;99.90;;;;;;7377732;19;20098;-78
2024/02/20 04:45:21;;;;;;;54.53;16.40;;;12.60;99.90;;;;;;7378301;19;20034;-78
2024/02/20 04:47:51;;;;;;;49.63;16.55;;;12.60;99.90;;;;;;7378179;19;20090;-77
2024/02/20 04:50:20;;;;;;;57.13;15.77;;;12.60;99.90;;;;;;7380530;19;20011;-78
2024/02/20 04:52:49;;;;;;;57.38;17.65;;;12.60;99.90;;;;;;7404212;19;20007;-77
2024/02/20 04:55:17;;;;;;;62.90;17.58;;;12.60;99.90;;;;;;7386202;19;20066;-77
2024/02/20 04:57:48;;;;;;;73.28;17.42;;;12.60;99.90;;;;;;7385429;19;20011;-77
2024/02/20 05:00:18;;;;;;;62.55;16.83;;;12.60;99.90;;;;;;7385280;19;20014;-77
2024/02/20 05:02:47;;;;;;;67.10;18.65;;;12.50;99.90;;;;;;7385882;19;20362;-78
2024/02/20 05:05:17;;;;;;;84.07;18.15;;;12.50;99.90;;;;;;7392944;19;20078;-77
2024/02/20 05:07:46;;;;;;;54.33;17.30;;;12.30;99.90;;;;;;7412908;19;20010;-77
2024/02/20 05:15:28;;;;;;;69.93;18.13;;;12.10;99.90;;;;;;7385216;19;20014;-78
2024/02/20 05:17:59;;;;;;;64.15;19.73;;;12.10;99.90;;;;;;7384798;19;20003;-78
2024/02/20 05:20:30;;;;;;;66.05;18.52;;;12.10;99.90;;;;;;7386124;19;20026;-78
2024/02/20 05:22:59;;;;;;;58.33;18.42;;;12.20;99.90;;;;;;7404137;19;20023;-78
2024/02/20 05:25:28;;;;;;;60.42;18.00;;;12.10;99.90;;;;;;7385535;19;20050;-78
2024/02/20 05:28:00;;;;;;;58.75;18.77;;;12.10;99.90;;;;;;7387040;19;20058;-78
2024/02/20 05:30:31;;;;;;;73.90;18.52;;;11.90;99.90;;;;;;7386072;19;20074;-78
2024/02/20 05:33:02;;;;;;;59.05;18.05;;;11.70;99.90;;;;;;7385410;19;20481;-78
2024/02/20 05:35:34;;;;;;;50.90;18.60;;;11.80;99.90;;;;;;7385919;19;20011;-78
2024/02/20 05:38:13;;;;;;;43.83;16.15;;;11.70;99.90;;;;;;7405426;19;20002;-79
2024/02/20 05:41:07;;;;;;;52.47;18.60;;;11.70;99.90;;;;;;7384386;19;20010;-78
2024/02/20 05:44:22;;;;;;;54.58;16.65;;;11.80;99.90;;;;;;7385870;19;20018;-78
2024/02/20 05:46:58;;;;;;;55.92;17.65;;;11.90;99.90;;;;;;7387030;19;20002;-78
2024/02/20 05:49:29;;;;;;;47.60;17.00;;;11.90;99.90;;;;;;7383521;19;20023;-76
2024/02/20 05:51:57;;;;;;;51.05;16.60;;;11.80;99.90;;;;;;7383056;19;20107;-77
2024/02/20 05:54:26;;;;;;;64.32;17.38;;;11.70;99.90;;;;;;7384727;19;20023;-78
2024/02/20 05:56:55;;;;;;;52.88;17.42;;;11.80;99.90;;;;;;7387702;19;20019;-78
2024/02/20 05:59:23;;;;;;;58.75;17.90;;;11.90;99.90;;;;;;7390172;19;20002;-78
2024/02/20 06:01:56;;;;;;;46.78;17.15;;;11.90;99.90;;;;;;7405846;19;20025;-78
2024/02/20 06:04:25;;;;;;;47.65;17.45;;;11.90;99.90;;;;;;7385765;19;20018;-78
2024/02/20 06:06:54;;;;;;;63.42;16.98;;;12.00;99.90;;;;;;7385238;19;20011;-78
2024/02/20 06:09:22;;;;;;;54.45;17.15;;;12.00;99.90;;;;;;7388818;19;20013;-78
2024/02/20 06:11:51;;;;;;;56.60;16.90;;;11.90;99.90;;;;;;7392870;19;20023;-77
2024/02/20 06:14:20;;;;;;;51.20;16.80;;;11.90;99.90;;;;;;7414969;19;20019;-77
2024/02/20 06:16:48;;;;;;;57.65;15.98;;;11.80;99.90;;;;;;7397298;19;20368;-77
2024/02/20 06:19:20;;;;;;;38.45;15.63;;;11.70;99.90;;;;;;7390272;19;20274;-77
2024/02/20 06:21:48;;;;;;;51.75;15.43;;;11.70;99.90;;;;;;7389200;19;20007;-77
2024/02/20 06:24:17;;;;;;;38.22;15.23;;;11.40;99.90;;;;;;7384040;19;20005;-77
2024/02/20 06:26:46;;;;;;;36.45;14.98;;;11.30;99.90;;;;;;7383122;19;19992;-77
2024/02/20 06:29:14;;;;;;;48.45;16.15;;;11.30;99.90;;;;;;7405305;19;20047;-77
2024/02/20 06:31:43;;;;;;;36.60;13.80;;;11.40;99.90;;;;;;7383671;19;20006;-77
2024/02/20 06:34:12;;;;;;;40.28;13.85;;;11.40;99.90;;;;;;7382444;19;20066;-77
2024/02/20 06:36:43;;;;;;;41.78;13.27;;;11.40;99.90;;;;;;7381795;19;20016;-77
2024/02/20 06:39:12;;;;;;;42.08;13.48;;;11.40;99.90;;;;;;7383085;19;20027;-77
2024/02/20 06:41:43;;;;;;;54.45;14.30;;;11.40;99.90;;;;;;7381236;19;20070;-77
2024/02/20 06:44:11;;;;;;;38.88;13.45;;;11.50;99.90;;;;;;7407053;19;20011;-78
2024/02/20 06:46:41;;;;;;;34.25;13.55;;;11.50;99.90;;;;;;7384331;19;20258;-77
2024/02/20 06:49:09;;;;;;;36.20;13.50;;;11.40;99.90;;;;;;7384306;19;20007;-77
2024/02/20 06:51:38;;;;;;;28.92;12.48;;;11.50;99.90;;;;;;7388223;19;20024;-77
2024/02/20 06:54:09;;;;;;;41.17;12.98;;;11.40;99.90;;;;;;7385006;19;20284;-77
2024/02/20 06:56:40;;;;;;;;;;;11.20;99.90;;;;;;7384043;19;20011;-77
2024/02/20 06:59:09;;;;;;;36.38;12.40;;;11.50;99.90;;;;;;7401962;19;20226;-77
2024/02/20 07:01:37;;;;;;;41.40;14.35;;;11.50;99.90;;;;;;7385085;19;20009;-77
2024/02/20 07:04:06;;;;;;;37.72;14.57;;;11.60;99.90;;;;;;7384277;19;20003;-77
2024/02/20 07:06:35;;;;;;;43.47;14.93;;;11.70;99.90;;;;;;7386200;19;20011;-77
2024/02/20 07:09:04;;;;;;;36.95;14.70;;;11.50;99.90;;;;;;7380518;19;20026;-78
2024/02/20 07:11:35;;;;;;;32.60;13.10;;;11.60;99.90;;;;;;7381313;19;20018;-78
2024/02/20 07:14:04;;;;;;;42.00;14.60;;;11.60;99.90;;;;;;7399488;19;20014;-76
2024/02/20 07:16:33;;;;;;;52.67;13.45;;;11.70;99.90;;;;;;7382858;19;20106;-78
2024/02/20 07:19:02;;;;;;;48.08;16.13;;;11.80;99.90;;;;;;7382875;19;20023;-77
2024/02/20 07:21:31;;;;;;;37.85;14.60;;;11.90;99.90;;;;;;7382371;19;20015;-78
2024/02/20 07:24:01;;;;;;;39.65;14.65;;;12.00;99.90;;;;;;7380437;19;20070;-77
2024/02/20 07:26:30;;;;;;;41.22;15.27;;;12.00;99.90;;;;;;7384674;19;20027;-79
2024/02/20 07:29:01;;;;;;;53.03;16.95;;;12.10;99.90;;;;;;7401557;19;20020;-77
2024/02/20 07:31:30;;;;;;;39.22;14.30;;;12.10;99.90;;;;;;7379485;19;20079;-77
2024/02/20 07:33:59;;;;;;;42.40;16.08;;;12.10;99.90;;;;;;7379695;19;20011;-77
2024/02/20 07:36:29;;;;;;;50.97;15.40;;;12.00;99.90;;;;;;7379186;19;20027;-77
2024/02/20 07:38:58;;;;;;;44.65;15.77;;;12.00;99.90;;;;;;7381010;19;20014;-76
2024/02/20 07:41:27;;;;;;;41.55;14.65;;;12.20;99.90;;;;;;7404255;19;20361;-76
2024/02/20 07:43:55;;;;;;;50.67;15.48;;;12.20;99.90;;;;;;7382020;19;20007;-77
2024/02/20 07:46:26;;;;;;;46.50;15.20;;;12.20;99.90;;;;;;7384670;19;20024;-78
2024/02/20 07:48:55;;;;;;;47.15;14.60;;;12.20;99.90;;;;;;7382538;19;20015;-77
2024/02/20 07:51:24;;;;;;;45.10;14.82;;;12.30;99.90;;;;;;7382101;19;20058;-77
2024/02/20 07:53:52;;;;;;;45.20;14.90;;;12.30;99.90;;;;;;7381227;19;20014;-77
2024/02/20 07:56:25;;;;;;;41.80;13.50;;;12.40;99.90;;;;;;7403613;19;20023;-77
2024/02/20 07:58:54;;;;;;;31.80;13.55;;;12.30;99.90;;;;;;7387829;19;20357;-77
2024/02/20 08:01:25;;;;;;;35.25;12.98;;;12.30;99.90;;;;;;7385296;19;20384;-78
2024/02/20 08:03:55;;;;;;;34.05;11.85;;;12.20;99.90;;;;;;7383210;19;20003;-78
2024/02/20 08:06:24;;;;;;;38.22;12.75;;;12.20;99.90;;;;;;7378748;19;20291;-77
2024/02/20 08:08:54;;;;;;;49.72;14.18;;;12.10;99.90;;;;;;7380595;19;19996;-77
2024/02/20 08:11:23;;;;;;;41.92;13.63;;;12.10;99.90;;;;;;7405075;19;20011;-78
2024/02/20 08:13:52;;;;;;;45.50;14.43;;;12.20;99.90;;;;;;7374817;19;20492;-76
2024/02/20 08:16:21;;;;;;;41.45;14.48;;;12.20;99.90;;;;;;7382567;19;20011;-76
2024/02/20 08:18:52;;;;;;;48.22;14.70;;;12.20;99.90;;;;;;7379178;19;20032;-75
2024/02/20 08:21:21;;;;;;;46.28;14.57;;;12.30;99.90;;;;;;7376591;19;20062;-76
2024/02/20 08:23:49;;;;;;;48.80;13.30;;;12.30;99.90;;;;;;7379622;19;20023;-76
2024/02/20 08:26:18;;;;;;;29.85;12.45;;;12.40;99.90;;;;;;7400285;19;20096;-76
2024/02/20 08:28:48;;;;;;;35.70;13.68;;;12.30;99.90;;;;;;7379492;19;20007;-76
2024/02/20 08:31:18;;;;;;;43.25;14.73;;;12.30;99.90;;;;;;7379486;19;20681;-76
2024/02/20 08:33:47;;;;;;;60.67;18.25;;;12.10;99.90;;;;;;7377443;19;20007;-76
2024/02/20 08:36:21;;;;;;;42.03;14.77;;;12.20;99.90;;;;;;7378766;19;20003;-78
2024/02/20 08:38:50;;;;;;;135.80;50.38;;;12.20;99.90;;;;;;7385857;19;20306;-79
2024/02/20 08:41:19;;;;;;;113.47;39.80;;;12.40;99.90;;;;;;7406544;19;20019;-76
2024/02/20 08:43:51;;;;;;;41.92;17.40;;;12.40;99.90;;;;;;7383980;19;20372;-75
2024/02/20 08:46:19;;;;;;;48.53;17.23;;;12.50;99.90;;;;;;7383607;19;20032;-78
2024/02/20 08:48:48;;;;;;;51.35;13.60;;;12.50;99.90;;;;;;7384109;19;20006;-75
2024/02/20 08:51:20;;;;;;;50.78;14.85;;;12.30;99.90;;;;;;7383556;19;20012;-75
2024/02/20 08:53:53;;;;;;;39.13;13.85;;;12.20;99.90;;;;;;7392779;19;20028;-77
2024/02/20 08:56:23;;;;;;;45.05;14.82;;;12.30;99.90;;;;;;7425206;19;20055;-79
2024/02/20 08:58:53;;;;;;;42.13;14.77;;;12.40;99.90;;;;;;7405393;19;20010;-79
2024/02/20 09:01:26;;;;;;;41.88;13.93;;;12.50;99.90;;;;;;7403455;19;20042;-77
2024/02/20 09:04:08;;;;;;;40.30;13.93;;;12.60;99.90;;;;;;7403289;19;20003;-84
2024/02/20 09:06:39;;;;;;;40.75;14.52;;;12.60;99.90;;;;;;7396470;19;20031;-75
2024/02/20 09:09:08;;;;;;;37.13;12.55;;;12.50;99.90;;;;;;7390076;19;20027;-75
2024/02/20 09:11:37;;;;;;;39.72;13.43;;;12.60;99.90;;;;;;7401153;19;20017;-74
2024/02/20 09:14:06;;;;;;;37.80;12.75;;;12.60;99.90;;;;;;7379088;19;20017;-78
2024/02/20 09:16:34;;;;;;;35.40;13.45;;;12.60;99.90;;;;;;7379572;19;20358;-77
2024/02/20 09:19:03;;;;;;;33.72;13.07;;;12.50;99.90;;;;;;7377902;19;20010;-77
2024/02/20 09:21:33;;;;;;;30.75;12.15;;;12.60;99.90;;;;;;7379693;19;20047;-79
2024/02/20 09:24:06;;;;;;;27.10;12.20;;;12.70;99.90;;;;;;7380930;19;20506;-78
2024/02/20 09:26:36;;;;;;;34.85;12.00;;;12.60;99.90;;;;;;7405229;19;20010;-79
2024/02/20 09:29:05;;;;;;;36.47;13.02;;;12.70;99.90;;;;;;7381979;19;20009;-80
2024/02/20 09:31:36;;;;;;;39.38;13.00;;;12.60;99.90;;;;;;7380551;19;20015;-77
2024/02/20 09:36:50;;;;;;;30.50;10.95;;;12.50;99.90;;;;;;7384331;19;20009;-81
2024/02/20 09:39:28;;;;;;;31.43;12.57;;;12.40;99.90;;;;;;7390100;19;20017;-81
2024/02/20 09:41:59;;;;;;;41.78;12.27;;;12.60;99.90;;;;;;7388855;19;20592;-81
2024/02/20 09:44:30;;;;;;;35.90;12.40;;;12.50;99.90;;;;;;7407424;19;20023;-78
2024/02/20 09:47:08;;;;;;;40.30;12.13;;;12.60;99.90;;;;;;7387781;19;20010;-82
2024/02/20 09:49:40;;;;;;;41.30;11.82;;;12.60;99.90;;;;;;7388817;19;20013;-78
2024/02/20 09:52:11;;;;;;;27.48;12.05;;;12.70;99.90;;;;;;7392122;19;20026;-78
2024/02/20 09:54:45;;;;;;;35.40;12.03;;;12.70;99.90;;;;;;7387888;19;20308;-77
2024/02/20 09:57:15;;;;;;;33.13;12.32;;;12.70;99.90;;;;;;7388784;19;20409;-79
2024/02/20 09:59:44;;;;;;;45.45;13.18;;;12.70;99.90;;;;;;7407069;19;20011;-79
2024/02/20 10:02:37;;;;;;;35.58;13.27;;;12.70;99.90;;;;;;7388923;19;19999;-86
2024/02/20 10:05:41;;;;;;;32.90;12.32;;;12.80;99.90;;;;;;7388763;19;20035;-82
2024/02/20 10:08:12;;;;;;;36.15;12.23;;;12.90;99.90;;;;;;7386937;19;20006;-81
2024/02/20 10:10:46;;;;;;;39.20;12.60;;;12.90;99.90;;;;;;7386763;19;20235;-78
2024/02/20 10:13:15;;;;;;;32.47;11.00;;;13.00;99.90;;;;;;7386508;19;20020;-79
2024/02/20 10:15:45;;;;;;;34.85;12.38;;;12.90;99.90;;;;;;7390874;19;20023;-79
2024/02/20 10:18:14;;;;;;;33.60;12.07;;;12.90;99.90;;;;;;7388685;19;20017;-79
2024/02/20 10:20:45;;;;;;;29.35;12.25;;;12.90;99.90;;;;;;7413455;19;20006;-79
2024/02/20 10:23:20;;;;;;;33.47;11.73;;;12.90;99.90;;;;;;7389557;19;20283;-81
2024/02/20 10:26:00;;;;;;;28.13;11.93;;;12.80;99.90;;;;;;7363118;19;20013;-77
2024/02/20 10:28:29;;;;;;;141.95;72.80;;;12.60;99.90;;;;;;7386748;19;20026;-77
2024/02/20 10:30:58;;;;;;;45.80;17.45;;;12.80;99.90;;;;;;7382596;19;20006;-75
2024/02/20 10:33:26;;;;;;;43.63;15.52;;;12.80;99.90;;;;;;7385778;19;20075;-76
2024/02/20 10:36:04;;;;;;;32.40;11.93;;;12.70;99.90;;;;;;7382570;19;20006;-78
2024/02/20 10:38:33;;;;;;;29.40;9.93;;;12.90;99.90;;;;;;7400432;19;20374;-75
2024/02/20 10:41:05;;;;;;;33.80;11.20;;;12.90;99.90;;;;;;7382208;19;20017;-76
2024/02/20 10:43:35;;;;;;;30.90;10.73;;;12.90;99.90;;;;;;7380505;19;20406;-74
2024/02/20 10:46:05;;;;;;;32.58;9.98;;;13.00;99.90;;;;;;7384006;19;19999;-77
2024/02/20 10:48:34;;;;;;;25.38;8.85;;;13.10;99.90;;;;;;7390795;19;20377;-80
2024/02/20 10:51:03;;;;;;;23.13;8.88;;;13.10;99.90;;;;;;7386194;19;20014;-76
2024/02/20 10:53:33;;;;;;;24.83;8.55;;;13.20;99.90;;;;;;7406575;19;20023;-76
2024/02/20 10:56:05;;;;;;;25.10;8.65;;;13.20;99.90;;;;;;7383299;19;20376;-75
2024/02/20 10:58:39;;;;;;;23.58;8.73;;;13.30;99.90;;;;;;7382806;19;20035;-77
2024/02/20 11:01:11;;;;;;;21.88;8.20;;;13.30;99.90;;;;;;7385227;19;20452;-77
2024/02/20 11:03:41;;;;;;;19.38;7.78;;;13.40;99.90;;;;;;7382360;19;20007;-78
2024/02/20 11:06:10;;;;;;;25.27;7.85;;;13.40;99.90;;;;;;7384738;19;20070;-77
2024/02/20 11:08:39;;;;;;;23.52;8.15;;;13.40;99.90;;;;;;7403009;19;20240;-77
2024/02/20 11:11:16;;;;;;;31.65;7.75;;;13.50;99.90;;;;;;7380074;19;20069;-76
2024/02/20 11:13:46;;;;;;;22.85;9.00;;;13.40;99.90;;;;;;7379127;19;20215;-75
2024/02/20 11:16:16;;;;;;;29.13;9.38;;;13.40;99.90;;;;;;7381454;19;20011;-76
2024/02/20 11:18:55;;;;;;;27.70;8.73;;;13.40;99.90;;;;;;7383788;19;20007;-80
2024/02/20 11:21:28;;;;;;;23.58;8.07;;;13.40;99.90;;;;;;7383735;19;20013;-77
2024/02/20 11:23:57;;;;;;;20.65;8.32;;;13.40;99.90;;;;;;7394619;19;20058;-77
2024/02/20 11:26:33;;;;;;;26.83;8.10;;;13.40;99.90;;;;;;7404572;19;20070;-77
2024/02/20 11:29:02;;;;;;;23.85;7.40;;;13.40;99.90;;;;;;7388191;19;20014;-78
2024/02/20 11:31:32;;;;;;;17.77;7.18;;;13.30;99.90;;;;;;7382802;19;20107;-76
2024/02/20 11:34:01;;;;;;;21.20;6.55;;;13.20;99.90;;;;;;7383122;19;20015;-76
2024/02/20 11:36:30;;;;;;;14.23;5.00;;;13.10;99.90;;;;;;7380737;19;20088;-75
2024/02/20 11:39:02;;;;;;;12.85;5.38;;;13.10;99.90;;;;;;7401922;19;20219;-74
2024/02/20 11:41:34;;;;;;;13.95;5.82;;;13.00;99.90;;;;;;7380517;19;20007;-75
2024/02/20 11:44:04;;;;;;;18.98;5.10;;;13.00;99.90;;;;;;7384267;19;20079;-76
2024/02/20 11:46:34;;;;;;;17.25;4.95;;;13.10;99.90;;;;;;7394687;19;20010;-75
2024/02/20 11:49:03;;;;;;;11.05;4.80;;;13.00;99.90;;;;;;7397460;19;20002;-77
2024/02/20 11:51:32;;;;;;;22.17;4.72;;;13.10;99.90;;;;;;7395664;19;20003;-75
2024/02/20 11:54:08;;;;;;;16.15;4.75;;;13.20;99.90;;;;;;7401714;19;20013;-77
2024/02/20 11:56:41;;;;;;;13.60;4.38;;;13.10;99.90;;;;;;7421937;19;20010;-79
2024/02/20 11:59:13;;;;;;;14.80;4.45;;;13.10;99.90;;;;;;7395760;19;20336;-77
2024/02/20 12:01:41;;;;;;;;;;;13.10;99.90;;;;;;7383464;19;20019;-77
2024/02/20 12:04:11;;;;;;;42.42;15.20;;;13.30;99.90;;;;;;7379358;19;19926;-75
2024/02/20 12:06:42;;;;;;;30.45;10.90;;;13.20;99.90;;;;;;7382026;19;20043;-78
2024/02/20 12:09:18;;;;;;;12.88;4.72;;;12.90;99.90;;;;;;7379486;19;20074;-75
2024/02/20 12:11:50;;;;;;;19.90;8.05;;;12.90;99.90;;;;;;7402502;19;20070;-77
2024/02/20 12:14:19;;;;;;;18.05;5.28;;;12.90;99.90;;;;;;7379021;19;20003;-75
2024/02/20 12:16:48;;;;;;;13.77;3.95;;;12.60;99.90;;;;;;7381255;19;20209;-78
2024/02/20 12:19:23;;;;;;;8.77;3.58;;;12.80;99.90;;;;;;7379387;19;20013;-77
2024/02/20 12:21:52;;;;;;;13.70;4.35;;;12.90;99.90;;;;;;7379674;19;20042;-77
2024/02/20 12:24:24;;;;;;;13.40;3.92;;;13.10;99.90;;;;;;7381526;19;20011;-77
2024/02/20 12:26:58;;;;;;;13.25;4.45;;;13.20;99.90;;;;;;7404002;19;20118;-77
2024/02/20 12:29:26;;;;;;;12.00;3.70;;;13.40;99.90;;;;;;7382148;19;20015;-76
2024/02/20 12:31:55;;;;;;;13.60;4.35;;;13.50;99.90;;;;;;7382805;19;20028;-77
2024/02/20 12:34:24;;;;;;;13.40;4.18;;;13.50;99.90;;;;;;7380188;19;20003;-76
2024/02/20 12:36:52;;;;;;;13.15;4.55;;;13.50;99.90;;;;;;7377354;19;20279;-77
2024/02/20 12:39:25;;;;;;;13.43;4.75;;;13.60;99.90;;;;;;7380520;19;20015;-75
2024/02/20 12:41:56;;;;;;;12.95;5.20;;;13.60;99.90;;;;;;7402811;19;20022;-81
2024/02/20 12:44:25;;;;;;;20.35;5.55;;;13.70;99.90;;;;;;7379706;19;20259;-77
2024/02/20 12:46:54;;;;;;;15.02;5.20;;;13.80;99.90;;;;;;7381188;19;20023;-76
2024/02/20 12:49:22;;;;;;;16.42;4.72;;;13.80;99.90;;;;;;7376013;19;20073;-77
2024/02/20 12:51:53;;;;;;;18.25;4.72;;;13.90;99.90;;;;;;7378039;19;20027;-78
2024/02/20 12:54:22;;;;;;;12.80;4.43;;;14.00;99.90;;;;;;7378056;19;20112;-76